Asher, Kentucky
Current Conditions -  °F | °C
As of 8:35 PM on Sunday 23 Nov 2014 (Local Time) from KI35 Reporting Station
Overcast Overcast  
Wind Chill: 13°   Ceiling: 1500
Heat Index: 13°   Visibility: 10mi
Dew Point: 12°   Wind: 3mph
Humidity: 94%   Direction: 170°S
Pressure: 29.55"   Gusts: NA
Location:  37.04°N, 83.4°W
Report Text: KI35 240135Z AUTO 17003KT 10SM BKN015 BKN021 OVC060 13/12 A2955 RMK AO1
Loading
Personal Weather Stations






























Interactive Weather Map New forecast layout! Learn more

10-Day Weather Forecast

Advertisements
Track Severe Weather on mobile